sensor_id;sensor_type;location;lat;lon;timestamp;P1;durP1;ratioP1;P2;durP2;ratioP2
12222;SDS011;6174;49.058;8.524;2023-07-24T07:09:14;7.87;;;7.03;;
12222;SDS011;6174;49.058;8.524;2023-07-24T07:21:45;9.20;;;7.73;;
12222;SDS011;6174;49.058;8.524;2023-07-24T07:24:13;10.17;;;7.90;;
12222;SDS011;6174;49.058;8.524;2023-07-24T07:26:57;8.17;;;7.37;;
12222;SDS011;6174;49.058;8.524;2023-07-24T08:46:34;11.30;;;10.10;;
12222;SDS011;6174;49.058;8.524;2023-07-24T08:49:13;11.20;;;9.60;;
12222;SDS011;6174;49.058;8.524;2023-07-24T08:51:41;11.43;;;10.00;;
12222;SDS011;6174;49.058;8.524;2023-07-24T08:54:11;10.50;;;9.50;;
12222;SDS011;6174;49.058;8.524;2023-07-24T08:56:41;11.27;;;9.77;;
12222;SDS011;6174;49.058;8.524;2023-07-24T08:59:13;10.87;;;9.80;;
12222;SDS011;6174;49.058;8.524;2023-07-24T09:04:31;11.50;;;10.30;;
12222;SDS011;6174;49.058;8.524;2023-07-24T09:28:30;11.53;;;9.73;;
12222;SDS011;6174;49.058;8.524;2023-07-24T09:31:01;11.20;;;9.47;;
12222;SDS011;6174;49.058;8.524;2023-07-24T09:33:36;10.93;;;9.50;;
12222;SDS011;6174;49.058;8.524;2023-07-24T09:36:07;11.17;;;10.00;;
12222;SDS011;6174;49.058;8.524;2023-07-24T09:38:34;9.90;;;8.90;;
12222;SDS011;6174;49.058;8.524;2023-07-24T09:41:03;13.97;;;9.80;;
12222;SDS011;6174;49.058;8.524;2023-07-24T09:43:30;9.73;;;8.80;;
12222;SDS011;6174;49.058;8.524;2023-07-24T09:46:00;10.30;;;9.33;;
12222;SDS011;6174;49.058;8.524;2023-07-24T09:48:30;10.33;;;9.10;;
12222;SDS011;6174;49.058;8.524;2023-07-24T09:50:57;9.27;;;8.37;;
12222;SDS011;6174;49.058;8.524;2023-07-24T09:53:28;10.00;;;8.87;;
12222;SDS011;6174;49.058;8.524;2023-07-24T09:55:59;10.03;;;9.03;;
12222;SDS011;6174;49.058;8.524;2023-07-24T09:58:31;10.27;;;8.80;;
12222;SDS011;6174;49.058;8.524;2023-07-24T10:00:59;11.00;;;8.73;;
12222;SDS011;6174;49.058;8.524;2023-07-24T10:03:28;9.47;;;8.23;;
12222;SDS011;6174;49.058;8.524;2023-07-24T10:05:56;9.30;;;8.30;;
12222;SDS011;6174;49.058;8.524;2023-07-24T10:08:23;8.90;;;8.10;;
12222;SDS011;6174;49.058;8.524;2023-07-24T10:10:51;9.03;;;7.80;;
12222;SDS011;6174;49.058;8.524;2023-07-24T10:13:19;8.73;;;7.83;;
12222;SDS011;6174;49.058;8.524;2023-07-24T10:15:48;8.37;;;7.57;;
12222;SDS011;6174;49.058;8.524;2023-07-24T10:18:16;8.43;;;7.63;;
12222;SDS011;6174;49.058;8.524;2023-07-24T10:20:43;9.20;;;8.20;;
12222;SDS011;6174;49.058;8.524;2023-07-24T10:23:11;9.30;;;8.50;;
12222;SDS011;6174;49.058;8.524;2023-07-24T10:25:44;8.90;;;8.10;;
12222;SDS011;6174;49.058;8.524;2023-07-24T10:28:11;9.40;;;8.50;;
12222;SDS011;6174;49.058;8.524;2023-07-24T10:30:41;9.30;;;8.20;;
12222;SDS011;6174;49.058;8.524;2023-07-24T10:33:10;8.90;;;8.10;;
12222;SDS011;6174;49.058;8.524;2023-07-24T10:35:39;9.30;;;8.33;;
12222;SDS011;6174;49.058;8.524;2023-07-24T10:38:08;9.90;;;8.87;;
12222;SDS011;6174;49.058;8.524;2023-07-24T10:40:35;9.37;;;8.37;;
12222;SDS011;6174;49.058;8.524;2023-07-24T10:43:05;9.63;;;8.83;;
12222;SDS011;6174;49.058;8.524;2023-07-24T10:45:42;9.20;;;8.30;;
12222;SDS011;6174;49.058;8.524;2023-07-24T10:48:14;8.83;;;8.00;;
12222;SDS011;6174;49.058;8.524;2023-07-24T10:50:42;8.93;;;8.03;;
12222;SDS011;6174;49.058;8.524;2023-07-24T10:53:13;8.23;;;7.43;;
12222;SDS011;6174;49.058;8.524;2023-07-24T10:55:41;8.43;;;7.53;;
12222;SDS011;6174;49.058;8.524;2023-07-24T10:58:08;7.90;;;7.17;;
12222;SDS011;6174;49.058;8.524;2023-07-24T11:00:36;8.20;;;7.40;;
12222;SDS011;6174;49.058;8.524;2023-07-24T11:03:04;8.37;;;7.47;;
12222;SDS011;6174;49.058;8.524;2023-07-24T11:05:34;7.87;;;7.07;;
12222;SDS011;6174;49.058;8.524;2023-07-24T11:08:01;7.33;;;6.63;;
12222;SDS011;6174;49.058;8.524;2023-07-24T11:10:39;7.80;;;7.10;;
12222;SDS011;6174;49.058;8.524;2023-07-24T11:13:10;8.27;;;7.53;;
12222;SDS011;6174;49.058;8.524;2023-07-24T11:15:37;7.87;;;7.00;;
12222;SDS011;6174;49.058;8.524;2023-07-24T11:18:04;7.63;;;6.93;;
12222;SDS011;6174;49.058;8.524;2023-07-24T11:20:35;7.23;;;6.53;;
12222;SDS011;6174;49.058;8.524;2023-07-24T11:23:03;7.30;;;6.70;;
12222;SDS011;6174;49.058;8.524;2023-07-24T11:25:30;7.33;;;6.67;;
12222;SDS011;6174;49.058;8.524;2023-07-24T11:27:58;7.60;;;7.00;;
12222;SDS011;6174;49.058;8.524;2023-07-24T11:30:25;8.37;;;7.57;;
12222;SDS011;6174;49.058;8.524;2023-07-24T11:32:51;7.37;;;6.67;;
12222;SDS011;6174;49.058;8.524;2023-07-24T11:35:19;7.60;;;6.90;;
12222;SDS011;6174;49.058;8.524;2023-07-24T11:37:48;8.50;;;7.70;;
12222;SDS011;6174;49.058;8.524;2023-07-24T11:40:15;7.93;;;7.23;;
12222;SDS011;6174;49.058;8.524;2023-07-24T11:42:42;7.53;;;6.83;;
12222;SDS011;6174;49.058;8.524;2023-07-24T11:45:11;7.83;;;7.13;;
12222;SDS011;6174;49.058;8.524;2023-07-24T11:47:44;7.83;;;7.10;;
12222;SDS011;6174;49.058;8.524;2023-07-24T11:50:13;7.10;;;6.40;;
12222;SDS011;6174;49.058;8.524;2023-07-24T11:52:40;7.70;;;6.93;;
12222;SDS011;6174;49.058;8.524;2023-07-24T11:55:11;7.70;;;7.00;;
12222;SDS011;6174;49.058;8.524;2023-07-24T11:57:38;8.23;;;7.47;;
12222;SDS011;6174;49.058;8.524;2023-07-24T12:00:18;7.80;;;7.00;;
12222;SDS011;6174;49.058;8.524;2023-07-24T12:02:46;7.97;;;7.23;;
12222;SDS011;6174;49.058;8.524;2023-07-24T12:05:19;7.67;;;6.67;;
12222;SDS011;6174;49.058;8.524;2023-07-24T12:08:29;7.00;;;6.30;;
12222;SDS011;6174;49.058;8.524;2023-07-24T12:10:51;7.37;;;6.67;;
12222;SDS011;6174;49.058;8.524;2023-07-24T12:13:32;7.00;;;6.40;;
12222;SDS011;6174;49.058;8.524;2023-07-24T12:16:38;7.70;;;6.90;;
12222;SDS011;6174;49.058;8.524;2023-07-24T12:24:44;7.10;;;6.40;;
12222;SDS011;6174;49.058;8.524;2023-07-24T12:27:35;7.67;;;6.97;;
12222;SDS011;6174;49.058;8.524;2023-07-24T12:39:06;6.50;;;5.90;;
12222;SDS011;6174;49.058;8.524;2023-07-24T12:41:37;6.73;;;5.83;;
12222;SDS011;6174;49.058;8.524;2023-07-24T12:44:10;7.00;;;6.40;;
12222;SDS011;6174;49.058;8.524;2023-07-24T12:53:27;6.60;;;6.00;;
12222;SDS011;6174;49.058;8.524;2023-07-24T13:05:50;6.13;;;5.53;;
12222;SDS011;6174;49.058;8.524;2023-07-24T13:25:26;5.80;;;5.20;;
12222;SDS011;6174;49.058;8.524;2023-07-24T13:28:05;6.27;;;5.67;;
12222;SDS011;6174;49.058;8.524;2023-07-24T13:30:35;6.35;;;5.85;;
12222;SDS011;6174;49.058;8.524;2023-07-24T13:49:07;5.93;;;5.40;;
12222;SDS011;6174;49.058;8.524;2023-07-24T13:54:09;6.13;;;5.55;;
12222;SDS011;6174;49.058;8.524;2023-07-24T13:56:45;5.80;;;5.25;;
12222;SDS011;6174;49.058;8.524;2023-07-24T13:59:21;6.10;;;5.50;;
12222;SDS011;6174;49.058;8.524;2023-07-24T14:02:09;5.78;;;5.20;;
12222;SDS011;6174;49.058;8.524;2023-07-24T14:04:50;6.35;;;5.60;;
12222;SDS011;6174;49.058;8.524;2023-07-24T14:07:46;5.95;;;5.45;;
12222;SDS011;6174;49.058;8.524;2023-07-24T14:17:11;5.47;;;4.97;;
12222;SDS011;6174;49.058;8.524;2023-07-24T14:19:55;5.88;;;5.38;;
12222;SDS011;6174;49.058;8.524;2023-07-24T14:25:55;5.43;;;4.93;;
12222;SDS011;6174;49.058;8.524;2023-07-24T14:28:59;5.70;;;5.20;;
12222;SDS011;6174;49.058;8.524;2023-07-24T14:31:42;5.47;;;4.97;;
12222;SDS011;6174;49.058;8.524;2023-07-24T15:07:38;4.90;;;4.50;;
12222;SDS011;6174;49.058;8.524;2023-07-24T15:10:12;5.95;;;4.38;;
12222;SDS011;6174;49.058;8.524;2023-07-24T15:12:51;12.15;;;9.75;;
12222;SDS011;6174;49.058;8.524;2023-07-24T15:15:27;11.23;;;7.40;;
12222;SDS011;6174;49.058;8.524;2023-07-24T15:17:54;7.17;;;6.47;;
12222;SDS011;6174;49.058;8.524;2023-07-24T15:20:21;7.43;;;5.47;;
12222;SDS011;6174;49.058;8.524;2023-07-24T15:22:49;6.93;;;6.23;;
12222;SDS011;6174;49.058;8.524;2023-07-24T15:25:18;6.90;;;6.17;;
12222;SDS011;6174;49.058;8.524;2023-07-24T15:27:45;6.50;;;5.90;;
12222;SDS011;6174;49.058;8.524;2023-07-24T15:30:14;7.07;;;5.83;;
12222;SDS011;6174;49.058;8.524;2023-07-24T15:32:43;6.80;;;5.93;;
12222;SDS011;6174;49.058;8.524;2023-07-24T15:53:40;6.00;;;5.40;;
12222;SDS011;6174;49.058;8.524;2023-07-24T15:56:09;5.97;;;5.37;;
12222;SDS011;6174;49.058;8.524;2023-07-24T15:58:37;5.73;;;5.23;;
12222;SDS011;6174;49.058;8.524;2023-07-24T16:01:04;6.00;;;5.33;;
12222;SDS011;6174;49.058;8.524;2023-07-24T16:03:32;6.20;;;5.60;;
12222;SDS011;6174;49.058;8.524;2023-07-24T16:06:02;6.53;;;5.33;;
12222;SDS011;6174;49.058;8.524;2023-07-24T16:08:31;6.47;;;5.40;;
12222;SDS011;6174;49.058;8.524;2023-07-24T16:11:13;5.63;;;5.03;;
12222;SDS011;6174;49.058;8.524;2023-07-24T16:13:41;5.43;;;4.93;;
12222;SDS011;6174;49.058;8.524;2023-07-24T16:16:08;5.17;;;4.70;;
12222;SDS011;6174;49.058;8.524;2023-07-24T16:18:36;5.10;;;4.63;;
12222;SDS011;6174;49.058;8.524;2023-07-24T16:21:04;4.57;;;4.10;;
12222;SDS011;6174;49.058;8.524;2023-07-24T16:23:31;5.27;;;4.40;;
12222;SDS011;6174;49.058;8.524;2023-07-24T16:26:04;4.90;;;4.50;;
12222;SDS011;6174;49.058;8.524;2023-07-24T16:28:31;4.77;;;4.37;;
12222;SDS011;6174;49.058;8.524;2023-07-24T16:30:58;4.50;;;4.10;;
12222;SDS011;6174;49.058;8.524;2023-07-24T16:33:37;5.67;;;4.27;;
12222;SDS011;6174;49.058;8.524;2023-07-24T16:36:07;4.93;;;4.43;;
12222;SDS011;6174;49.058;8.524;2023-07-24T16:38:34;4.67;;;4.17;;
12222;SDS011;6174;49.058;8.524;2023-07-24T16:41:01;4.30;;;3.93;;
12222;SDS011;6174;49.058;8.524;2023-07-24T16:43:28;4.93;;;4.23;;
12222;SDS011;6174;49.058;8.524;2023-07-24T16:45:54;4.53;;;4.13;;
12222;SDS011;6174;49.058;8.524;2023-07-24T16:48:21;4.47;;;4.07;;
12222;SDS011;6174;49.058;8.524;2023-07-24T16:50:48;6.27;;;4.40;;
12222;SDS011;6174;49.058;8.524;2023-07-24T16:53:17;4.73;;;3.97;;
12222;SDS011;6174;49.058;8.524;2023-07-24T16:55:43;4.07;;;3.67;;
12222;SDS011;6174;49.058;8.524;2023-07-24T16:58:10;4.83;;;3.50;;
12222;SDS011;6174;49.058;8.524;2023-07-24T17:00:37;5.63;;;4.07;;
12222;SDS011;6174;49.058;8.524;2023-07-24T17:03:04;3.97;;;3.67;;
12222;SDS011;6174;49.058;8.524;2023-07-24T17:05:31;3.80;;;3.50;;
12222;SDS011;6174;49.058;8.524;2023-07-24T17:07:58;3.70;;;3.23;;
12222;SDS011;6174;49.058;8.524;2023-07-24T17:10:26;4.73;;;3.40;;
12222;SDS011;6174;49.058;8.524;2023-07-24T17:12:56;4.60;;;3.33;;
12222;SDS011;6174;49.058;8.524;2023-07-24T17:15:22;3.13;;;2.83;;
12222;SDS011;6174;49.058;8.524;2023-07-24T17:17:49;4.10;;;3.30;;
12222;SDS011;6174;49.058;8.524;2023-07-24T17:20:16;3.60;;;3.30;;
12222;SDS011;6174;49.058;8.524;2023-07-24T17:22:43;3.33;;;2.97;;
12222;SDS011;6174;49.058;8.524;2023-07-24T17:25:10;4.00;;;3.10;;
12222;SDS011;6174;49.058;8.524;2023-07-24T17:27:38;3.83;;;3.40;;
12222;SDS011;6174;49.058;8.524;2023-07-24T17:30:06;3.47;;;3.13;;
12222;SDS011;6174;49.058;8.524;2023-07-24T17:32:33;2.90;;;2.70;;
12222;SDS011;6174;49.058;8.524;2023-07-24T17:35:00;2.97;;;2.77;;
12222;SDS011;6174;49.058;8.524;2023-07-24T17:37:30;3.13;;;2.83;;
12222;SDS011;6174;49.058;8.524;2023-07-24T17:39:59;3.90;;;3.23;;
12222;SDS011;6174;49.058;8.524;2023-07-24T17:42:25;2.90;;;2.60;;
12222;SDS011;6174;49.058;8.524;2023-07-24T17:44:54;2.77;;;2.40;;
12222;SDS011;6174;49.058;8.524;2023-07-24T17:47:20;4.00;;;2.80;;
12222;SDS011;6174;49.058;8.524;2023-07-24T17:49:47;3.93;;;2.90;;
12222;SDS011;6174;49.058;8.524;2023-07-24T17:52:14;2.77;;;2.53;;
12222;SDS011;6174;49.058;8.524;2023-07-24T17:54:41;3.07;;;2.87;;
12222;SDS011;6174;49.058;8.524;2023-07-24T17:57:08;3.03;;;2.63;;
12222;SDS011;6174;49.058;8.524;2023-07-24T17:59:35;3.67;;;2.50;;
12222;SDS011;6174;49.058;8.524;2023-07-24T18:02:05;2.40;;;2.20;;
12222;SDS011;6174;49.058;8.524;2023-07-24T18:04:31;3.43;;;2.77;;
12222;SDS011;6174;49.058;8.524;2023-07-24T18:06:58;3.03;;;2.70;;
12222;SDS011;6174;49.058;8.524;2023-07-24T18:09:25;2.60;;;2.40;;
12222;SDS011;6174;49.058;8.524;2023-07-24T18:11:52;2.77;;;2.57;;
12222;SDS011;6174;49.058;8.524;2023-07-24T18:14:19;2.50;;;2.30;;
12222;SDS011;6174;49.058;8.524;2023-07-24T18:16:47;2.63;;;2.17;;
12222;SDS011;6174;49.058;8.524;2023-07-24T18:19:15;2.70;;;2.37;;
12222;SDS011;6174;49.058;8.524;2023-07-24T18:21:42;2.57;;;2.37;;
12222;SDS011;6174;49.058;8.524;2023-07-24T18:24:10;3.73;;;2.50;;
12222;SDS011;6174;49.058;8.524;2023-07-24T18:26:37;3.63;;;2.67;;
12222;SDS011;6174;49.058;8.524;2023-07-24T18:29:04;2.07;;;1.97;;
12222;SDS011;6174;49.058;8.524;2023-07-24T18:31:31;2.60;;;2.20;;
12222;SDS011;6174;49.058;8.524;2023-07-24T18:33:58;2.40;;;2.20;;
12222;SDS011;6174;49.058;8.524;2023-07-24T18:36:26;2.20;;;2.10;;
12222;SDS011;6174;49.058;8.524;2023-07-24T18:38:54;2.30;;;2.10;;
12222;SDS011;6174;49.058;8.524;2023-07-24T18:41:21;2.30;;;2.10;;
12222;SDS011;6174;49.058;8.524;2023-07-24T18:43:48;2.20;;;2.00;;
12222;SDS011;6174;49.058;8.524;2023-07-24T18:46:15;2.53;;;2.23;;
12222;SDS011;6174;49.058;8.524;2023-07-24T18:48:42;2.50;;;2.30;;
12222;SDS011;6174;49.058;8.524;2023-07-24T18:51:09;2.30;;;2.10;;
12222;SDS011;6174;49.058;8.524;2023-07-24T18:53:38;2.40;;;2.20;;
12222;SDS011;6174;49.058;8.524;2023-07-24T18:56:05;2.40;;;2.23;;
12222;SDS011;6174;49.058;8.524;2023-07-24T18:58:31;2.70;;;2.50;;
12222;SDS011;6174;49.058;8.524;2023-07-24T19:00:58;2.50;;;2.10;;
12222;SDS011;6174;49.058;8.524;2023-07-24T19:03:27;2.33;;;2.13;;
12222;SDS011;6174;49.058;8.524;2023-07-24T19:06:11;2.30;;;2.20;;
12222;SDS011;6174;49.058;8.524;2023-07-24T19:14:51;2.43;;;2.23;;
12222;SDS011;6174;49.058;8.524;2023-07-24T19:17:52;2.83;;;2.20;;
12222;SDS011;6174;49.058;8.524;2023-07-24T19:23:11;2.67;;;2.20;;
12222;SDS011;6174;49.058;8.524;2023-07-24T19:25:38;2.90;;;2.37;;
12222;SDS011;6174;49.058;8.524;2023-07-24T19:28:06;2.33;;;2.13;;
12222;SDS011;6174;49.058;8.524;2023-07-24T19:30:33;3.10;;;2.60;;
12222;SDS011;6174;49.058;8.524;2023-07-24T19:33:00;2.70;;;2.50;;
12222;SDS011;6174;49.058;8.524;2023-07-24T19:35:26;3.10;;;2.67;;
12222;SDS011;6174;49.058;8.524;2023-07-24T19:37:53;2.70;;;2.50;;
12222;SDS011;6174;49.058;8.524;2023-07-24T19:40:20;3.37;;;2.80;;
12222;SDS011;6174;49.058;8.524;2023-07-24T19:42:47;3.20;;;2.90;;
12222;SDS011;6174;49.058;8.524;2023-07-24T19:45:15;3.50;;;2.70;;
12222;SDS011;6174;49.058;8.524;2023-07-24T19:47:42;3.17;;;2.87;;
12222;SDS011;6174;49.058;8.524;2023-07-24T19:50:09;3.10;;;2.80;;
12222;SDS011;6174;49.058;8.524;2023-07-24T19:52:35;2.90;;;2.70;;
12222;SDS011;6174;49.058;8.524;2023-07-24T19:55:02;2.77;;;2.53;;
12222;SDS011;6174;49.058;8.524;2023-07-24T19:57:30;2.73;;;2.53;;
12222;SDS011;6174;49.058;8.524;2023-07-24T19:59:56;3.00;;;2.80;;
12222;SDS011;6174;49.058;8.524;2023-07-24T20:02:24;2.93;;;2.70;;
12222;SDS011;6174;49.058;8.524;2023-07-24T20:04:51;3.03;;;2.73;;
12222;SDS011;6174;49.058;8.524;2023-07-24T20:07:18;2.90;;;2.70;;
12222;SDS011;6174;49.058;8.524;2023-07-24T20:09:45;4.43;;;3.07;;
12222;SDS011;6174;49.058;8.524;2023-07-24T20:12:14;3.00;;;2.47;;
12222;SDS011;6174;49.058;8.524;2023-07-24T20:14:41;2.87;;;2.53;;
12222;SDS011;6174;49.058;8.524;2023-07-24T20:17:08;3.10;;;2.70;;
12222;SDS011;6174;49.058;8.524;2023-07-24T20:19:36;2.80;;;2.60;;
12222;SDS011;6174;49.058;8.524;2023-07-24T20:22:03;2.80;;;2.50;;
12222;SDS011;6174;49.058;8.524;2023-07-24T20:24:30;2.70;;;2.50;;
12222;SDS011;6174;49.058;8.524;2023-07-24T20:26:57;3.07;;;2.80;;
12222;SDS011;6174;49.058;8.524;2023-07-24T20:29:24;4.60;;;2.70;;
12222;SDS011;6174;49.058;8.524;2023-07-24T20:31:50;2.87;;;2.50;;
12222;SDS011;6174;49.058;8.524;2023-07-24T20:34:17;2.97;;;2.50;;
12222;SDS011;6174;49.058;8.524;2023-07-24T20:36:45;2.40;;;2.20;;
12222;SDS011;6174;49.058;8.524;2023-07-24T20:39:12;3.90;;;2.40;;
12222;SDS011;6174;49.058;8.524;2023-07-24T20:41:42;3.00;;;2.70;;
12222;SDS011;6174;49.058;8.524;2023-07-24T20:44:09;2.90;;;2.30;;
12222;SDS011;6174;49.058;8.524;2023-07-24T20:46:35;3.10;;;2.87;;
12222;SDS011;6174;49.058;8.524;2023-07-24T20:49:02;2.70;;;2.50;;
12222;SDS011;6174;49.058;8.524;2023-07-24T20:51:29;3.10;;;2.80;;
12222;SDS011;6174;49.058;8.524;2023-07-24T20:53:58;2.73;;;2.53;;
12222;SDS011;6174;49.058;8.524;2023-07-24T20:56:24;2.90;;;2.57;;
12222;SDS011;6174;49.058;8.524;2023-07-24T20:58:51;3.27;;;2.67;;
12222;SDS011;6174;49.058;8.524;2023-07-24T21:01:18;3.10;;;2.43;;
12222;SDS011;6174;49.058;8.524;2023-07-24T21:03:49;2.67;;;2.47;;
12222;SDS011;6174;49.058;8.524;2023-07-24T21:19:12;3.13;;;2.27;;
12222;SDS011;6174;49.058;8.524;2023-07-24T21:21:52;3.77;;;2.50;;
12222;SDS011;6174;49.058;8.524;2023-07-24T21:24:57;2.83;;;2.20;;
12222;SDS011;6174;49.058;8.524;2023-07-24T21:27:32;2.60;;;2.40;;
12222;SDS011;6174;49.058;8.524;2023-07-24T21:30:26;2.70;;;2.40;;
12222;SDS011;6174;49.058;8.524;2023-07-24T21:32:53;2.43;;;2.33;;
12222;SDS011;6174;49.058;8.524;2023-07-24T21:35:32;4.13;;;2.40;;
12222;SDS011;6174;49.058;8.524;2023-07-24T21:38:18;2.47;;;2.27;;
12222;SDS011;6174;49.058;8.524;2023-07-24T21:40:57;3.10;;;2.53;;
12222;SDS011;6174;49.058;8.524;2023-07-24T21:48:29;2.40;;;2.20;;
